createdAt,value
2023-05-18T00:04:29.170Z,7.90
2023-05-18T00:09:38.368Z,7.86
2023-05-18T00:14:45.520Z,7.78
2023-05-18T00:19:52.389Z,7.73
2023-05-18T00:24:59.391Z,7.69
2023-05-18T00:30:07.425Z,7.62
2023-05-18T00:35:16.180Z,7.54
2023-05-18T00:40:26.907Z,7.46
2023-05-18T00:45:34.174Z,7.35
2023-05-18T00:50:41.612Z,7.24
2023-05-18T00:55:49.482Z,7.17
2023-05-18T01:00:57.120Z,7.08
2023-05-18T01:06:05.946Z,6.97
2023-05-18T01:11:18.013Z,6.88
2023-05-18T01:16:34.576Z,6.78
2023-05-18T01:21:51.997Z,6.71
2023-05-18T01:27:02.093Z,6.64
2023-05-18T01:32:11.416Z,6.59
2023-05-18T01:37:18.358Z,6.55
2023-05-18T01:42:31.912Z,6.51
2023-05-18T01:47:42.734Z,6.47
2023-05-18T01:52:55.582Z,6.43
2023-05-18T01:58:04.109Z,6.40
2023-05-18T02:03:13.573Z,6.37
2023-05-18T02:08:20.740Z,6.37
2023-05-18T02:13:28.056Z,6.37
2023-05-18T02:18:36.487Z,6.37
2023-05-18T02:23:43.701Z,6.37
2023-05-18T02:28:50.826Z,6.39
2023-05-18T02:33:58.091Z,6.40
2023-05-18T02:39:05.561Z,6.40
2023-05-18T02:44:13.899Z,6.39
2023-05-18T02:49:20.890Z,6.36
2023-05-18T02:54:28.097Z,6.33
2023-05-18T02:59:35.213Z,6.31
2023-05-18T03:04:42.579Z,6.29
2023-05-18T03:09:49.652Z,6.27
2023-05-18T03:14:56.893Z,6.26
2023-05-18T03:20:04.995Z,6.26
2023-05-18T03:25:12.449Z,6.25
2023-05-18T03:30:20.830Z,6.25
2023-05-18T03:35:28.856Z,6.26
2023-05-18T03:40:36.278Z,6.25
2023-05-18T03:45:43.532Z,6.25
2023-05-18T03:50:50.760Z,6.28
2023-05-18T03:55:58.123Z,6.33
2023-05-18T04:01:05.596Z,6.41
2023-05-18T04:06:12.837Z,6.51
2023-05-18T04:11:20.127Z,6.60
2023-05-18T04:16:27.685Z,6.71
2023-05-18T04:21:36.280Z,6.80
2023-05-18T04:26:44.206Z,6.88
2023-05-18T04:31:51.928Z,6.94
2023-05-18T04:36:59.605Z,7.01
2023-05-18T04:42:07.243Z,7.10
2023-05-18T04:47:14.480Z,7.18
2023-05-18T04:52:21.865Z,7.26
2023-05-18T04:57:29.255Z,7.39
2023-05-18T05:02:36.416Z,7.46
2023-05-18T05:07:44.720Z,7.55
2023-05-18T05:12:52.467Z,7.64
2023-05-18T05:18:01.631Z,7.75
2023-05-18T05:23:09.637Z,7.86
2023-05-18T05:28:18.826Z,7.98
2023-05-18T05:33:25.774Z,8.09
2023-05-18T05:38:33.288Z,8.22
2023-05-18T05:43:40.852Z,8.37
2023-05-18T05:48:48.166Z,8.51
2023-05-18T05:53:55.278Z,8.74
2023-05-18T05:59:02.319Z,9.00
2023-05-18T06:04:10.941Z,9.20
2023-05-18T06:09:18.618Z,9.39
2023-05-18T06:14:26.366Z,9.56
2023-05-18T06:19:34.457Z,9.69
2023-05-18T06:24:42.617Z,9.85
2023-05-18T06:30:12.205Z,10.00
2023-05-18T06:35:33.155Z,10.05
2023-05-18T06:40:40.188Z,10.15
2023-05-18T06:45:48.647Z,10.23
2023-05-18T06:51:02.964Z,10.28
2023-05-18T06:56:11.813Z,10.44
2023-05-18T07:01:19.742Z,10.67
2023-05-18T07:06:27.202Z,10.83
2023-05-18T07:11:34.281Z,10.98
2023-05-18T07:16:41.447Z,11.23
2023-05-18T07:21:48.362Z,11.41
2023-05-18T07:26:55.335Z,11.69
2023-05-18T07:32:02.462Z,11.82
2023-05-18T07:37:09.674Z,11.95
2023-05-18T07:42:16.740Z,12.08
2023-05-18T07:47:23.664Z,12.28
2023-05-18T07:52:31.103Z,12.37
2023-05-18T07:57:38.332Z,12.41
2023-05-18T08:02:46.458Z,12.42
2023-05-18T08:07:54.065Z,12.39
2023-05-18T08:13:01.030Z,12.56
2023-05-18T08:18:08.141Z,12.71
2023-05-18T08:23:15.042Z,13.00
2023-05-18T08:28:21.989Z,13.08
2023-05-18T08:33:29.585Z,13.35
2023-05-18T08:38:36.531Z,13.52
2023-05-18T08:43:49.968Z,13.82
2023-05-18T08:48:59.806Z,14.03
2023-05-18T08:54:09.415Z,14.07
2023-05-18T08:59:20.305Z,14.12
2023-05-18T09:04:25.948Z,14.27
2023-05-18T09:09:34.337Z,14.48
2023-05-18T09:14:42.434Z,14.76
2023-05-18T09:19:49.663Z,15.01
2023-05-18T09:24:56.928Z,15.00
2023-05-18T09:30:05.069Z,15.13
2023-05-18T09:35:12.959Z,15.32
2023-05-18T09:40:20.753Z,15.42
2023-05-18T09:45:29.276Z,15.40
2023-05-18T09:50:37.637Z,15.35
2023-05-18T09:55:49.834Z,15.41
2023-05-18T10:01:01.663Z,15.40
2023-05-18T10:06:10.477Z,15.30
2023-05-18T10:11:21.975Z,15.46
2023-05-18T10:16:29.144Z,15.62
2023-05-18T10:21:37.945Z,15.56
2023-05-18T10:26:47.896Z,15.35
2023-05-18T10:31:56.918Z,15.32
2023-05-18T10:37:06.614Z,15.42
2023-05-18T10:42:16.293Z,15.39
2023-05-18T10:47:25.833Z,15.30
2023-05-18T10:52:34.998Z,15.41
2023-05-18T10:57:46.773Z,15.68
2023-05-18T11:02:55.033Z,15.95
2023-05-18T11:08:05.891Z,16.19
2023-05-18T11:13:12.296Z,16.30
2023-05-18T11:18:19.780Z,16.27
2023-05-18T11:23:27.749Z,16.20
2023-05-18T11:28:43.665Z,16.29
2023-05-18T11:33:51.162Z,16.70
2023-05-18T11:39:06.979Z,17.01
2023-05-18T11:44:21.968Z,17.14
2023-05-18T11:49:30.774Z,17.34
2023-05-18T11:54:41.546Z,17.96
2023-05-18T11:59:49.872Z,18.82
2023-05-18T12:05:00.309Z,19.62
2023-05-18T12:10:08.644Z,20.17
2023-05-18T12:15:17.420Z,20.92
2023-05-18T12:20:26.764Z,21.74
2023-05-18T12:25:34.169Z,22.59
2023-05-18T12:30:41.668Z,23.18
2023-05-18T12:35:48.793Z,23.59
2023-05-18T12:40:57.245Z,23.91
2023-05-18T12:46:05.130Z,24.44
2023-05-18T12:51:21.073Z,24.79
2023-05-18T12:56:28.722Z,25.28
2023-05-18T13:01:44.042Z,25.71
2023-05-18T13:06:51.444Z,25.92
2023-05-18T13:12:07.855Z,26.01
2023-05-18T13:17:24.363Z,26.25
2023-05-18T13:22:31.400Z,26.48
2023-05-18T13:27:39.394Z,26.81
2023-05-18T13:32:46.442Z,27.36
2023-05-18T13:37:54.052Z,27.80
2023-05-18T13:43:01.079Z,27.95
2023-05-18T13:48:10.651Z,28.28
2023-05-18T13:53:18.203Z,28.04
2023-05-18T13:58:25.023Z,28.10
2023-05-18T14:03:34.117Z,28.31
2023-05-18T14:08:41.235Z,28.33
2023-05-18T14:13:48.142Z,27.91
2023-05-18T14:18:55.879Z,28.29
2023-05-18T14:24:05.932Z,28.08
2023-05-18T14:29:13.077Z,27.92
2023-05-18T14:34:20.169Z,28.18
2023-05-18T14:39:27.350Z,28.33
2023-05-18T14:44:34.368Z,28.30
2023-05-18T14:49:41.699Z,28.17
2023-05-18T14:54:48.977Z,28.34
2023-05-18T14:59:56.071Z,28.06
2023-05-18T15:05:03.168Z,27.85
2023-05-18T15:10:11.803Z,27.54
2023-05-18T15:15:19.057Z,27.43
2023-05-18T15:20:27.012Z,27.42
2023-05-18T15:25:34.090Z,27.36
2023-05-18T15:30:41.056Z,27.41
2023-05-18T15:35:48.273Z,27.19
2023-05-18T15:40:55.242Z,26.32
2023-05-18T15:46:02.703Z,25.45
2023-05-18T15:51:09.681Z,25.67
2023-05-18T15:56:16.713Z,25.82
2023-05-18T16:01:23.728Z,25.82
2023-05-18T16:06:30.827Z,25.70
2023-05-18T16:11:37.748Z,25.34
2023-05-18T16:16:44.671Z,24.80
2023-05-18T16:21:51.934Z,24.42
2023-05-18T16:26:58.904Z,24.52
2023-05-18T16:32:06.521Z,24.91
2023-05-18T16:37:13.420Z,24.97
2023-05-18T16:42:20.943Z,24.94
2023-05-18T16:47:28.624Z,24.79
2023-05-18T16:52:35.586Z,24.39
2023-05-18T16:57:43.392Z,23.43
2023-05-18T17:02:50.381Z,22.70
2023-05-18T17:07:57.414Z,22.12
2023-05-18T17:13:04.244Z,21.90
2023-05-18T17:18:11.309Z,21.78
2023-05-18T17:23:19.199Z,21.52
2023-05-18T17:28:26.215Z,21.41
2023-05-18T17:33:33.033Z,21.29
2023-05-18T17:38:39.985Z,21.24
2023-05-18T17:43:46.952Z,21.00
2023-05-18T17:48:54.073Z,20.43
2023-05-18T17:54:00.996Z,19.98
2023-05-18T17:59:09.595Z,19.61
2023-05-18T18:04:17.225Z,19.13
2023-05-18T18:09:24.365Z,18.57
2023-05-18T18:14:31.352Z,18.09
2023-05-18T18:19:38.274Z,17.68
2023-05-18T18:24:45.154Z,17.40
2023-05-18T18:29:52.167Z,16.99
2023-05-18T18:34:59.113Z,16.63
2023-05-18T18:40:07.933Z,16.38
2023-05-18T18:45:16.189Z,16.09
2023-05-18T18:50:23.783Z,15.77
2023-05-18T18:55:31.266Z,15.48
2023-05-18T19:00:38.437Z,15.26
2023-05-18T19:05:45.690Z,15.03
2023-05-18T19:10:52.945Z,14.80
2023-05-18T19:16:00.073Z,14.57
2023-05-18T19:21:07.155Z,14.34
2023-05-18T19:26:14.158Z,14.11
2023-05-18T19:31:21.150Z,13.90
2023-05-18T19:36:30.137Z,13.70
2023-05-18T19:41:39.682Z,13.46
2023-05-18T19:46:46.942Z,13.27
2023-05-18T19:51:54.216Z,13.12
2023-05-18T19:57:01.214Z,12.94
2023-05-18T20:02:11.566Z,12.74
2023-05-18T20:07:20.464Z,12.51
2023-05-18T20:12:28.339Z,12.33
2023-05-18T20:17:35.310Z,12.18
2023-05-18T20:22:42.496Z,12.02
2023-05-18T20:27:49.591Z,11.87
2023-05-18T20:32:59.115Z,11.71
2023-05-18T20:38:07.408Z,11.50
2023-05-18T20:43:20.615Z,11.30
2023-05-18T20:48:29.015Z,11.12
2023-05-18T20:53:36.059Z,10.96
2023-05-18T20:58:48.663Z,10.85
2023-05-18T21:03:58.347Z,10.72
2023-05-18T21:09:08.120Z,10.61
2023-05-18T21:14:15.144Z,10.51
2023-05-18T21:19:22.232Z,10.42
2023-05-18T21:24:29.346Z,10.34
2023-05-18T21:29:36.341Z,10.27
2023-05-18T21:34:43.741Z,10.20
2023-05-18T21:39:51.096Z,10.16
2023-05-18T21:44:58.001Z,10.11
2023-05-18T21:50:05.356Z,10.06
2023-05-18T21:55:13.821Z,10.06
2023-05-18T22:00:22.066Z,10.05
2023-05-18T22:05:29.099Z,10.05
2023-05-18T22:10:36.194Z,10.04
2023-05-18T22:15:43.423Z,10.04
2023-05-18T22:20:50.771Z,10.03
2023-05-18T22:25:58.094Z,10.02
2023-05-18T22:31:05.709Z,10.01
2023-05-18T22:36:12.967Z,10.01
2023-05-18T22:41:20.564Z,9.99
2023-05-18T22:46:27.636Z,9.97
2023-05-18T22:51:35.866Z,9.94
2023-05-18T22:56:42.887Z,9.92
2023-05-18T23:01:54.590Z,9.92
2023-05-18T23:07:04.292Z,9.91
2023-05-18T23:12:12.373Z,9.91
2023-05-18T23:17:22.861Z,9.89
2023-05-18T23:22:31.386Z,9.87
2023-05-18T23:27:38.679Z,9.85
2023-05-18T23:32:46.947Z,9.83
2023-05-18T23:37:56.907Z,9.82
2023-05-18T23:43:04.448Z,9.85
2023-05-18T23:48:13.796Z,9.89
2023-05-18T23:53:22.784Z,9.90
2023-05-18T23:58:32.866Z,9.88
